sensor_id;sensor_type;location;lat;lon;timestamp;pressure;altitude;pressure_sealevel;temperature;humidity
21545;BME280;10933;50.754;11.508;2023-07-13T00:00:50;99647.84;;;20.14;100.00
21545;BME280;10933;50.754;11.508;2023-07-13T00:03:16;99669.09;;;19.94;100.00
21545;BME280;10933;50.754;11.508;2023-07-13T00:05:43;99677.41;;;19.67;100.00
21545;BME280;10933;50.754;11.508;2023-07-13T00:08:09;99683.38;;;19.69;100.00
21545;BME280;10933;50.754;11.508;2023-07-13T00:10:41;99698.59;;;19.75;100.00
21545;BME280;10933;50.754;11.508;2023-07-13T00:13:08;99694.59;;;19.81;100.00
21545;BME280;10933;50.754;11.508;2023-07-13T00:15:34;99709.41;;;19.80;100.00
21545;BME280;10933;50.754;11.508;2023-07-13T00:18:01;99705.75;;;19.85;100.00
21545;BME280;10933;50.754;11.508;2023-07-13T00:20:27;99721.88;;;19.86;100.00
21545;BME280;10933;50.754;11.508;2023-07-13T00:22:54;99719.31;;;19.90;100.00
21545;BME280;10933;50.754;11.508;2023-07-13T00:25:21;99722.19;;;19.85;100.00
21545;BME280;10933;50.754;11.508;2023-07-13T00:27:50;99723.84;;;19.72;100.00
21545;BME280;10933;50.754;11.508;2023-07-13T00:30:16;99725.66;;;19.63;100.00
21545;BME280;10933;50.754;11.508;2023-07-13T00:32:43;99726.47;;;19.50;100.00
21545;BME280;10933;50.754;11.508;2023-07-13T00:35:09;99738.44;;;19.40;100.00
21545;BME280;10933;50.754;11.508;2023-07-13T00:37:35;99732.75;;;19.50;100.00
21545;BME280;10933;50.754;11.508;2023-07-13T00:40:06;99725.88;;;19.39;100.00
21545;BME280;10933;50.754;11.508;2023-07-13T00:42:32;99734.50;;;19.32;100.00
21545;BME280;10933;50.754;11.508;2023-07-13T00:47:28;99725.06;;;19.38;100.00
21545;BME280;10933;50.754;11.508;2023-07-13T00:49:54;99727.91;;;19.47;100.00
21545;BME280;10933;50.754;11.508;2023-07-13T00:52:20;99731.94;;;19.50;100.00
21545;BME280;10933;50.754;11.508;2023-07-13T00:54:48;99728.09;;;19.51;100.00
21545;BME280;10933;50.754;11.508;2023-07-13T00:57:19;99735.19;;;19.38;100.00
21545;BME280;10933;50.754;11.508;2023-07-13T00:59:49;99720.00;;;19.32;100.00
21545;BME280;10933;50.754;11.508;2023-07-13T01:02:17;99717.03;;;19.42;100.00
21545;BME280;10933;50.754;11.508;2023-07-13T01:04:44;99729.53;;;19.34;100.00
21545;BME280;10933;50.754;11.508;2023-07-13T01:07:11;99733.56;;;19.23;100.00
21545;BME280;10933;50.754;11.508;2023-07-13T01:09:38;99722.03;;;19.13;100.00
21545;BME280;10933;50.754;11.508;2023-07-13T01:12:04;99720.38;;;18.98;100.00
21545;BME280;10933;50.754;11.508;2023-07-13T01:14:30;99725.66;;;18.80;100.00
21545;BME280;10933;50.754;11.508;2023-07-13T01:16:57;99731.09;;;18.80;100.00
21545;BME280;10933;50.754;11.508;2023-07-13T01:19:40;99741.44;;;18.84;100.00
21545;BME280;10933;50.754;11.508;2023-07-13T01:22:10;99735.03;;;18.74;100.00
21545;BME280;10933;50.754;11.508;2023-07-13T01:24:41;99719.66;;;18.46;100.00
21545;BME280;10933;50.754;11.508;2023-07-13T01:27:10;99723.22;;;18.28;100.00
21545;BME280;10933;50.754;11.508;2023-07-13T01:29:38;99720.13;;;18.15;100.00
21545;BME280;10933;50.754;11.508;2023-07-13T01:32:09;99727.81;;;18.13;100.00
21545;BME280;10933;50.754;11.508;2023-07-13T01:34:36;99730.69;;;18.22;100.00
21545;BME280;10933;50.754;11.508;2023-07-13T01:37:06;99725.72;;;18.24;100.00
21545;BME280;10933;50.754;11.508;2023-07-13T01:39:33;99718.13;;;18.21;100.00
21545;BME280;10933;50.754;11.508;2023-07-13T01:41:59;99710.00;;;18.16;100.00
21545;BME280;10933;50.754;11.508;2023-07-13T01:44:26;99714.31;;;18.22;100.00
21545;BME280;10933;50.754;11.508;2023-07-13T01:46:52;99719.38;;;18.29;100.00
21545;BME280;10933;50.754;11.508;2023-07-13T01:49:18;99722.38;;;18.46;100.00
21545;BME280;10933;50.754;11.508;2023-07-13T01:51:44;99728.97;;;18.45;100.00
21545;BME280;10933;50.754;11.508;2023-07-13T01:54:11;99732.50;;;18.45;100.00
21545;BME280;10933;50.754;11.508;2023-07-13T01:56:37;99733.59;;;18.44;100.00
21545;BME280;10933;50.754;11.508;2023-07-13T01:59:03;99719.22;;;18.39;100.00
21545;BME280;10933;50.754;11.508;2023-07-13T02:01:29;99709.94;;;18.21;100.00
21545;BME280;10933;50.754;11.508;2023-07-13T02:03:55;99713.72;;;18.06;100.00
21545;BME280;10933;50.754;11.508;2023-07-13T02:06:21;99717.03;;;18.03;100.00
21545;BME280;10933;50.754;11.508;2023-07-13T02:08:47;99717.78;;;17.90;100.00
21545;BME280;10933;50.754;11.508;2023-07-13T02:11:13;99720.88;;;17.83;100.00
21545;BME280;10933;50.754;11.508;2023-07-13T02:13:40;99724.44;;;17.84;100.00
21545;BME280;10933;50.754;11.508;2023-07-13T02:16:06;99727.53;;;17.96;100.00
21545;BME280;10933;50.754;11.508;2023-07-13T02:18:32;99721.47;;;17.99;100.00
21545;BME280;10933;50.754;11.508;2023-07-13T02:20:59;99729.75;;;17.94;100.00
21545;BME280;10933;50.754;11.508;2023-07-13T02:23:25;99731.78;;;18.02;100.00
21545;BME280;10933;50.754;11.508;2023-07-13T02:25:59;99727.00;;;18.13;100.00
21545;BME280;10933;50.754;11.508;2023-07-13T02:28:25;99726.41;;;18.16;100.00
21545;BME280;10933;50.754;11.508;2023-07-13T02:30:51;99725.38;;;18.12;100.00
21545;BME280;10933;50.754;11.508;2023-07-13T02:33:18;99723.91;;;17.82;100.00
21545;BME280;10933;50.754;11.508;2023-07-13T02:35:44;99720.31;;;17.62;100.00
21545;BME280;10933;50.754;11.508;2023-07-13T02:38:10;99723.13;;;17.57;100.00
21545;BME280;10933;50.754;11.508;2023-07-13T02:40:37;99726.28;;;17.64;100.00
21545;BME280;10933;50.754;11.508;2023-07-13T02:43:04;99733.22;;;17.81;100.00
21545;BME280;10933;50.754;11.508;2023-07-13T02:45:30;99729.44;;;17.77;100.00
21545;BME280;10933;50.754;11.508;2023-07-13T02:47:56;99726.78;;;17.72;100.00
21545;BME280;10933;50.754;11.508;2023-07-13T02:50:22;99734.16;;;17.71;100.00
21545;BME280;10933;50.754;11.508;2023-07-13T02:52:48;99741.91;;;17.83;100.00
21545;BME280;10933;50.754;11.508;2023-07-13T02:55:14;99745.06;;;17.90;100.00
21545;BME280;10933;50.754;11.508;2023-07-13T02:57:41;99748.34;;;17.92;100.00
21545;BME280;10933;50.754;11.508;2023-07-13T03:00:07;99746.94;;;17.94;100.00
21545;BME280;10933;50.754;11.508;2023-07-13T03:02:35;99751.50;;;17.99;100.00
21545;BME280;10933;50.754;11.508;2023-07-13T03:05:01;99754.22;;;17.99;100.00
21545;BME280;10933;50.754;11.508;2023-07-13T03:07:27;99749.28;;;18.01;100.00
21545;BME280;10933;50.754;11.508;2023-07-13T03:09:55;99751.78;;;17.98;100.00
21545;BME280;10933;50.754;11.508;2023-07-13T03:12:22;99742.88;;;17.92;100.00
21545;BME280;10933;50.754;11.508;2023-07-13T03:14:49;99752.22;;;17.86;100.00
21545;BME280;10933;50.754;11.508;2023-07-13T03:17:15;99749.50;;;17.86;100.00
21545;BME280;10933;50.754;11.508;2023-07-13T03:19:41;99763.53;;;17.98;100.00
21545;BME280;10933;50.754;11.508;2023-07-13T03:22:07;99760.88;;;17.93;100.00
21545;BME280;10933;50.754;11.508;2023-07-13T03:24:34;99765.66;;;17.82;100.00
21545;BME280;10933;50.754;11.508;2023-07-13T03:27:05;99765.44;;;17.79;100.00
21545;BME280;10933;50.754;11.508;2023-07-13T03:29:31;99764.38;;;17.75;100.00
21545;BME280;10933;50.754;11.508;2023-07-13T03:31:57;99762.28;;;17.67;100.00
21545;BME280;10933;50.754;11.508;2023-07-13T03:34:24;99758.59;;;17.57;100.00
21545;BME280;10933;50.754;11.508;2023-07-13T03:36:50;99760.63;;;17.47;100.00
21545;BME280;10933;50.754;11.508;2023-07-13T03:39:16;99751.72;;;17.12;100.00
21545;BME280;10933;50.754;11.508;2023-07-13T03:41:42;99756.91;;;16.85;100.00
21545;BME280;10933;50.754;11.508;2023-07-13T03:44:08;99758.41;;;16.72;100.00
21545;BME280;10933;50.754;11.508;2023-07-13T03:46:34;99770.44;;;16.66;100.00
21545;BME280;10933;50.754;11.508;2023-07-13T03:49:04;99772.59;;;16.64;100.00
21545;BME280;10933;50.754;11.508;2023-07-13T03:51:31;99771.44;;;16.75;100.00
21545;BME280;10933;50.754;11.508;2023-07-13T03:53:57;99775.69;;;16.86;100.00
21545;BME280;10933;50.754;11.508;2023-07-13T03:56:24;99779.66;;;16.99;100.00
21545;BME280;10933;50.754;11.508;2023-07-13T03:58:50;99785.25;;;17.13;100.00
21545;BME280;10933;50.754;11.508;2023-07-13T04:01:19;99789.38;;;17.10;100.00
21545;BME280;10933;50.754;11.508;2023-07-13T04:03:45;99787.69;;;16.90;100.00
21545;BME280;10933;50.754;11.508;2023-07-13T04:06:22;99781.28;;;17.00;100.00
21545;BME280;10933;50.754;11.508;2023-07-13T04:08:51;99791.53;;;17.37;100.00
21545;BME280;10933;50.754;11.508;2023-07-13T04:11:19;99813.06;;;17.62;100.00
21545;BME280;10933;50.754;11.508;2023-07-13T04:13:45;99811.97;;;17.63;100.00
21545;BME280;10933;50.754;11.508;2023-07-13T04:16:12;99811.63;;;17.46;100.00
21545;BME280;10933;50.754;11.508;2023-07-13T04:18:39;99817.06;;;17.46;100.00
21545;BME280;10933;50.754;11.508;2023-07-13T04:21:05;99812.09;;;17.53;100.00
21545;BME280;10933;50.754;11.508;2023-07-13T04:23:31;99813.88;;;17.63;100.00
21545;BME280;10933;50.754;11.508;2023-07-13T04:25:57;99816.78;;;17.96;100.00
21545;BME280;10933;50.754;11.508;2023-07-13T04:28:25;99815.75;;;18.29;100.00
21545;BME280;10933;50.754;11.508;2023-07-13T04:30:51;99810.28;;;18.29;100.00
21545;BME280;10933;50.754;11.508;2023-07-13T04:33:18;99812.53;;;18.46;100.00
21545;BME280;10933;50.754;11.508;2023-07-13T04:35:52;99810.91;;;18.07;100.00
21545;BME280;10933;50.754;11.508;2023-07-13T04:38:24;99807.09;;;17.60;100.00
21545;BME280;10933;50.754;11.508;2023-07-13T04:40:51;99807.38;;;17.35;100.00
21545;BME280;10933;50.754;11.508;2023-07-13T04:43:18;99808.38;;;17.44;100.00
21545;BME280;10933;50.754;11.508;2023-07-13T04:45:45;99813.13;;;17.57;100.00
21545;BME280;10933;50.754;11.508;2023-07-13T04:48:11;99810.34;;;17.86;100.00
21545;BME280;10933;50.754;11.508;2023-07-13T04:50:38;99819.72;;;17.99;100.00
21545;BME280;10933;50.754;11.508;2023-07-13T04:53:04;99833.13;;;19.08;100.00
21545;BME280;10933;50.754;11.508;2023-07-13T04:55:31;99830.94;;;20.56;100.00
21545;BME280;10933;50.754;11.508;2023-07-13T04:57:58;99814.47;;;22.29;100.00
21545;BME280;10933;50.754;11.508;2023-07-13T05:00:25;99767.44;;;22.30;100.00
21545;BME280;10933;50.754;11.508;2023-07-13T05:02:53;99771.25;;;21.95;100.00
21545;BME280;10933;50.754;11.508;2023-07-13T05:05:19;99766.41;;;21.92;100.00
21545;BME280;10933;50.754;11.508;2023-07-13T05:07:45;99752.63;;;24.01;100.00
21545;BME280;10933;50.754;11.508;2023-07-13T05:10:12;99711.56;;;25.08;100.00
21545;BME280;10933;50.754;11.508;2023-07-13T05:12:38;99693.84;;;25.45;100.00
21545;BME280;10933;50.754;11.508;2023-07-13T05:15:04;99699.69;;;24.50;100.00
21545;BME280;10933;50.754;11.508;2023-07-13T05:17:30;99695.41;;;24.98;100.00
21545;BME280;10933;50.754;11.508;2023-07-13T05:19:57;99708.97;;;23.62;100.00
21545;BME280;10933;50.754;11.508;2023-07-13T05:22:23;99712.94;;;23.73;100.00
21545;BME280;10933;50.754;11.508;2023-07-13T05:24:49;99728.75;;;22.87;100.00
21545;BME280;10933;50.754;11.508;2023-07-13T05:27:15;99749.53;;;21.59;100.00
21545;BME280;10933;50.754;11.508;2023-07-13T05:29:41;99778.94;;;20.29;100.00
21545;BME280;10933;50.754;11.508;2023-07-13T05:32:08;99797.38;;;20.01;100.00
21545;BME280;10933;50.754;11.508;2023-07-13T05:34:34;99801.63;;;20.07;100.00
21545;BME280;10933;50.754;11.508;2023-07-13T05:37:00;99792.91;;;21.39;100.00
21545;BME280;10933;50.754;11.508;2023-07-13T05:39:26;99758.13;;;23.42;100.00
21545;BME280;10933;50.754;11.508;2023-07-13T05:41:53;99726.28;;;25.12;100.00
21545;BME280;10933;50.754;11.508;2023-07-13T05:44:19;99712.13;;;25.74;100.00
21545;BME280;10933;50.754;11.508;2023-07-13T05:46:46;99704.63;;;25.87;100.00
21545;BME280;10933;50.754;11.508;2023-07-13T05:49:12;99701.91;;;26.03;100.00
21545;BME280;10933;50.754;11.508;2023-07-13T05:51:38;99677.97;;;26.94;100.00
21545;BME280;10933;50.754;11.508;2023-07-13T05:54:04;99674.78;;;27.08;100.00
21545;BME280;10933;50.754;11.508;2023-07-13T05:56:30;99669.25;;;27.08;100.00
21545;BME280;10933;50.754;11.508;2023-07-13T05:58:57;99675.91;;;26.91;100.00
21545;BME280;10933;50.754;11.508;2023-07-13T06:01:23;99699.66;;;26.92;100.00
21545;BME280;10933;50.754;11.508;2023-07-13T06:03:49;99681.72;;;27.69;100.00
21545;BME280;10933;50.754;11.508;2023-07-13T06:06:16;99659.41;;;28.58;100.00
21545;BME280;10933;50.754;11.508;2023-07-13T06:08:43;99652.88;;;27.70;100.00
21545;BME280;10933;50.754;11.508;2023-07-13T06:11:18;99650.91;;;27.70;100.00
21545;BME280;10933;50.754;11.508;2023-07-13T06:13:46;99697.59;;;25.65;100.00
21545;BME280;10933;50.754;11.508;2023-07-13T06:16:13;99693.63;;;26.43;100.00
21545;BME280;10933;50.754;11.508;2023-07-13T06:18:40;99696.44;;;26.90;100.00
21545;BME280;10933;50.754;11.508;2023-07-13T06:21:09;99703.78;;;25.99;100.00
21545;BME280;10933;50.754;11.508;2023-07-13T06:23:36;99722.66;;;24.87;100.00
21545;BME280;10933;50.754;11.508;2023-07-13T06:26:03;99732.59;;;25.61;100.00
21545;BME280;10933;50.754;11.508;2023-07-13T06:28:30;99713.97;;;25.83;100.00
21545;BME280;10933;50.754;11.508;2023-07-13T06:30:57;99731.13;;;24.70;100.00
21545;BME280;10933;50.754;11.508;2023-07-13T06:33:24;99759.25;;;23.80;100.00
21545;BME280;10933;50.754;11.508;2023-07-13T06:35:54;99778.53;;;23.80;100.00
21545;BME280;10933;50.754;11.508;2023-07-13T06:38:23;99754.75;;;24.58;100.00
21545;BME280;10933;50.754;11.508;2023-07-13T06:40:49;99737.22;;;25.81;100.00
21545;BME280;10933;50.754;11.508;2023-07-13T06:43:15;99717.44;;;26.48;100.00
21545;BME280;10933;50.754;11.508;2023-07-13T06:45:47;99699.28;;;26.78;100.00
21545;BME280;10933;50.754;11.508;2023-07-13T06:48:16;99691.69;;;27.89;100.00
21545;BME280;10933;50.754;11.508;2023-07-13T06:50:43;99666.44;;;28.52;100.00
21545;BME280;10933;50.754;11.508;2023-07-13T06:53:11;99679.78;;;27.53;100.00
21545;BME280;10933;50.754;11.508;2023-07-13T06:55:37;99706.97;;;26.85;100.00
21545;BME280;10933;50.754;11.508;2023-07-13T06:58:04;99725.63;;;26.04;100.00
21545;BME280;10933;50.754;11.508;2023-07-13T07:00:30;99721.13;;;26.11;100.00
21545;BME280;10933;50.754;11.508;2023-07-13T07:02:57;99724.16;;;26.34;100.00
21545;BME280;10933;50.754;11.508;2023-07-13T07:05:23;99703.88;;;26.43;100.00
21545;BME280;10933;50.754;11.508;2023-07-13T07:07:53;99718.16;;;26.45;100.00
21545;BME280;10933;50.754;11.508;2023-07-13T07:10:21;99703.09;;;27.02;100.00
21545;BME280;10933;50.754;11.508;2023-07-13T07:12:47;99690.25;;;27.60;100.00
21545;BME280;10933;50.754;11.508;2023-07-13T07:15:14;99688.00;;;27.66;100.00
21545;BME280;10933;50.754;11.508;2023-07-13T07:17:40;99684.41;;;28.00;100.00
21545;BME280;10933;50.754;11.508;2023-07-13T07:20:07;99652.69;;;29.05;100.00
21545;BME280;10933;50.754;11.508;2023-07-13T07:22:33;99664.63;;;28.21;100.00
21545;BME280;10933;50.754;11.508;2023-07-13T07:25:00;99712.19;;;26.43;100.00
21545;BME280;10933;50.754;11.508;2023-07-13T07:27:26;99715.28;;;26.85;100.00
21545;BME280;10933;50.754;11.508;2023-07-13T07:29:52;99696.38;;;27.85;100.00
21545;BME280;10933;50.754;11.508;2023-07-13T07:32:19;99672.28;;;28.47;100.00
21545;BME280;10933;50.754;11.508;2023-07-13T07:34:46;99663.81;;;28.59;100.00
21545;BME280;10933;50.754;11.508;2023-07-13T07:37:16;99641.09;;;29.79;100.00
21545;BME280;10933;50.754;11.508;2023-07-13T07:39:43;99642.03;;;31.05;100.00
21545;BME280;10933;50.754;11.508;2023-07-13T07:42:10;99646.06;;;30.63;100.00
21545;BME280;10933;50.754;11.508;2023-07-13T07:44:39;99621.59;;;31.38;100.00
21545;BME280;10933;50.754;11.508;2023-07-13T07:47:06;99603.88;;;31.75;100.00
21545;BME280;10933;50.754;11.508;2023-07-13T07:49:32;99626.47;;;29.85;100.00
21545;BME280;10933;50.754;11.508;2023-07-13T07:51:59;99627.59;;;28.98;100.00
21545;BME280;10933;50.754;11.508;2023-07-13T07:54:25;99643.94;;;29.03;100.00
21545;BME280;10933;50.754;11.508;2023-07-13T07:56:51;99663.63;;;28.94;100.00
21545;BME280;10933;50.754;11.508;2023-07-13T07:59:18;99640.56;;;28.90;100.00
21545;BME280;10933;50.754;11.508;2023-07-13T08:01:44;99655.00;;;28.57;100.00
21545;BME280;10933;50.754;11.508;2023-07-13T08:04:12;99678.78;;;27.97;100.00
21545;BME280;10933;50.754;11.508;2023-07-13T08:06:38;99688.50;;;27.36;100.00
21545;BME280;10933;50.754;11.508;2023-07-13T08:09:04;99695.91;;;27.01;100.00
21545;BME280;10933;50.754;11.508;2023-07-13T08:11:31;99720.94;;;26.32;100.00
21545;BME280;10933;50.754;11.508;2023-07-13T08:13:58;99727.56;;;26.56;100.00
21545;BME280;10933;50.754;11.508;2023-07-13T08:16:24;99670.09;;;27.79;100.00
21545;BME280;10933;50.754;11.508;2023-07-13T08:18:50;99637.31;;;29.38;100.00
21545;BME280;10933;50.754;11.508;2023-07-13T08:21:17;99627.53;;;30.07;100.00
21545;BME280;10933;50.754;11.508;2023-07-13T08:23:45;99629.75;;;28.62;100.00
21545;BME280;10933;50.754;11.508;2023-07-13T08:26:12;99670.34;;;27.39;100.00
21545;BME280;10933;50.754;11.508;2023-07-13T08:28:38;99694.88;;;26.18;100.00
21545;BME280;10933;50.754;11.508;2023-07-13T08:31:06;99718.59;;;25.05;100.00
21545;BME280;10933;50.754;11.508;2023-07-13T08:33:34;99724.13;;;25.54;100.00
21545;BME280;10933;50.754;11.508;2023-07-13T08:36:01;99717.13;;;26.09;100.00
21545;BME280;10933;50.754;11.508;2023-07-13T08:38:27;99694.63;;;25.83;100.00
21545;BME280;10933;50.754;11.508;2023-07-13T08:40:55;99694.81;;;25.90;100.00
21545;BME280;10933;50.754;11.508;2023-07-13T08:43:35;99701.09;;;25.26;100.00
21545;BME280;10933;50.754;11.508;2023-07-13T08:46:24;99697.03;;;24.99;100.00
21545;BME280;10933;50.754;11.508;2023-07-13T08:48:56;99691.06;;;25.58;100.00
21545;BME280;10933;50.754;11.508;2023-07-13T08:51:44;99693.22;;;26.17;100.00
21545;BME280;10933;50.754;11.508;2023-07-13T08:54:22;99685.16;;;26.24;100.00
21545;BME280;10933;50.754;11.508;2023-07-13T08:56:54;99708.34;;;26.19;100.00
21545;BME280;10933;50.754;11.508;2023-07-13T08:59:27;99696.50;;;26.06;100.00
21545;BME280;10933;50.754;11.508;2023-07-13T09:02:21;99709.63;;;25.69;100.00
21545;BME280;10933;50.754;11.508;2023-07-13T09:04:53;99707.84;;;26.73;100.00
21545;BME280;10933;50.754;11.508;2023-07-13T09:15:36;99561.28;;;31.85;97.32
21545;BME280;10933;50.754;11.508;2023-07-13T09:18:27;99553.63;;;31.68;99.64
21545;BME280;10933;50.754;11.508;2023-07-13T09:21:08;99537.81;;;32.04;87.81
21545;BME280;10933;50.754;11.508;2023-07-13T09:23:36;99553.22;;;30.96;96.08
21545;BME280;10933;50.754;11.508;2023-07-13T09:26:12;99576.94;;;29.08;100.00
21545;BME280;10933;50.754;11.508;2023-07-13T09:28:57;99577.41;;;29.10;100.00
21545;BME280;10933;50.754;11.508;2023-07-13T09:31:39;99568.28;;;30.44;98.42
21545;BME280;10933;50.754;11.508;2023-07-13T09:34:11;99539.38;;;33.26;59.86
21545;BME280;10933;50.754;11.508;2023-07-13T09:36:38;99529.78;;;33.38;61.15
21545;BME280;10933;50.754;11.508;2023-07-13T09:39:31;99538.81;;;35.26;53.97
21545;BME280;10933;50.754;11.508;2023-07-13T09:47:30;99533.81;;;28.88;87.98
21545;BME280;10933;50.754;11.508;2023-07-13T09:50:00;99566.31;;;27.41;100.00
21545;BME280;10933;50.754;11.508;2023-07-13T09:52:38;99553.72;;;28.02;94.92
21545;BME280;10933;50.754;11.508;2023-07-13T09:55:12;99542.31;;;31.36;78.14
21545;BME280;10933;50.754;11.508;2023-07-13T09:57:48;99530.91;;;31.66;64.03
21545;BME280;10933;50.754;11.508;2023-07-13T10:00:23;99541.50;;;31.31;71.30
21545;BME280;10933;50.754;11.508;2023-07-13T10:02:59;99534.81;;;31.43;55.24
21545;BME280;10933;50.754;11.508;2023-07-13T10:05:25;99534.78;;;29.29;70.60
21545;BME280;10933;50.754;11.508;2023-07-13T10:07:52;99548.69;;;29.29;75.04
21545;BME280;10933;50.754;11.508;2023-07-13T10:10:22;99538.72;;;30.73;63.68
21545;BME280;10933;50.754;11.508;2023-07-13T10:12:49;99537.81;;;32.11;58.15
21545;BME280;10933;50.754;11.508;2023-07-13T10:15:20;99540.47;;;33.60;56.05
21545;BME280;10933;50.754;11.508;2023-07-13T10:17:49;99546.44;;;34.88;47.05
21545;BME280;10933;50.754;11.508;2023-07-13T10:20:16;99553.69;;;34.81;45.93
21545;BME280;10933;50.754;11.508;2023-07-13T10:27:45;99543.22;;;29.66;64.15
21545;BME280;10933;50.754;11.508;2023-07-13T10:32:44;99542.69;;;29.27;70.85
21545;BME280;10933;50.754;11.508;2023-07-13T10:35:16;99546.84;;;31.69;57.23
21545;BME280;10933;50.754;11.508;2023-07-13T10:38:03;99557.75;;;32.02;55.96
21545;BME280;10933;50.754;11.508;2023-07-13T10:41:03;99542.72;;;31.34;59.57
21545;BME280;10933;50.754;11.508;2023-07-13T10:43:39;99539.34;;;31.83;62.10
21545;BME280;10933;50.754;11.508;2023-07-13T10:46:08;99537.47;;;30.23;64.23
21545;BME280;10933;50.754;11.508;2023-07-13T10:48:36;99548.81;;;30.03;81.67
21545;BME280;10933;50.754;11.508;2023-07-13T10:51:05;99527.66;;;29.95;70.53
21545;BME280;10933;50.754;11.508;2023-07-13T10:53:35;99538.88;;;30.94;60.56
21545;BME280;10933;50.754;11.508;2023-07-13T10:56:16;99534.56;;;30.53;60.11
21545;BME280;10933;50.754;11.508;2023-07-13T10:58:45;99542.19;;;30.15;61.16
21545;BME280;10933;50.754;11.508;2023-07-13T11:01:13;99539.63;;;29.99;71.94
21545;BME280;10933;50.754;11.508;2023-07-13T11:04:00;99543.09;;;29.89;71.90
21545;BME280;10933;50.754;11.508;2023-07-13T11:09:30;99545.31;;;31.05;65.19
21545;BME280;10933;50.754;11.508;2023-07-13T11:12:00;99546.66;;;32.88;52.52
21545;BME280;10933;50.754;11.508;2023-07-13T11:14:35;99544.94;;;31.80;51.48
21545;BME280;10933;50.754;11.508;2023-07-13T11:17:33;99533.34;;;31.74;53.42
21545;BME280;10933;50.754;11.508;2023-07-13T11:22:49;99536.59;;;29.78;58.25
21545;BME280;10933;50.754;11.508;2023-07-13T11:36:07;99521.72;;;28.77;75.57
21545;BME280;10933;50.754;11.508;2023-07-13T11:38:43;99532.19;;;28.87;78.65
21545;BME280;10933;50.754;11.508;2023-07-13T11:41:29;99534.38;;;27.28;86.71
21545;BME280;10933;50.754;11.508;2023-07-13T11:44:17;99530.88;;;27.31;92.88
21545;BME280;10933;50.754;11.508;2023-07-13T11:46:51;99537.28;;;26.81;93.56
21545;BME280;10933;50.754;11.508;2023-07-13T11:49:20;99535.44;;;27.04;94.33
21545;BME280;10933;50.754;11.508;2023-07-13T11:51:46;99549.81;;;27.10;94.12
21545;BME280;10933;50.754;11.508;2023-07-13T11:54:32;99532.06;;;27.30;88.41
21545;BME280;10933;50.754;11.508;2023-07-13T11:59:51;99524.44;;;29.93;72.38
21545;BME280;10933;50.754;11.508;2023-07-13T12:02:33;99527.78;;;29.39;72.79
21545;BME280;10933;50.754;11.508;2023-07-13T12:05:02;99525.56;;;28.95;75.94
21545;BME280;10933;50.754;11.508;2023-07-13T12:07:31;99529.09;;;29.18;76.08
21545;BME280;10933;50.754;11.508;2023-07-13T12:10:02;99538.06;;;29.68;73.95
21545;BME280;10933;50.754;11.508;2023-07-13T12:12:30;99533.72;;;29.37;75.36
21545;BME280;10933;50.754;11.508;2023-07-13T12:14:56;99542.28;;;28.26;77.79
21545;BME280;10933;50.754;11.508;2023-07-13T12:17:24;99534.16;;;27.95;82.94
21545;BME280;10933;50.754;11.508;2023-07-13T12:19:52;99519.56;;;28.89;79.13
21545;BME280;10933;50.754;11.508;2023-07-13T12:22:20;99529.97;;;28.96;81.72
21545;BME280;10933;50.754;11.508;2023-07-13T12:24:47;99534.50;;;28.58;79.57
21545;BME280;10933;50.754;11.508;2023-07-13T12:27:32;99541.56;;;28.29;81.41
21545;BME280;10933;50.754;11.508;2023-07-13T12:30:02;99536.91;;;28.14;80.70
21545;BME280;10933;50.754;11.508;2023-07-13T12:32:29;99533.91;;;28.23;87.45
21545;BME280;10933;50.754;11.508;2023-07-13T12:35:13;99540.53;;;27.76;90.37
21545;BME280;10933;50.754;11.508;2023-07-13T12:37:42;99541.94;;;27.12;92.72
21545;BME280;10933;50.754;11.508;2023-07-13T12:40:19;99544.13;;;27.57;91.55
21545;BME280;10933;50.754;11.508;2023-07-13T12:42:49;99541.53;;;27.29;90.21
21545;BME280;10933;50.754;11.508;2023-07-13T12:45:28;99554.34;;;27.18;94.29
21545;BME280;10933;50.754;11.508;2023-07-13T12:48:14;99539.19;;;27.12;90.39
21545;BME280;10933;50.754;11.508;2023-07-13T12:50:48;99544.31;;;27.48;91.65
21545;BME280;10933;50.754;11.508;2023-07-13T12:53:19;99534.50;;;28.12;88.15
21545;BME280;10933;50.754;11.508;2023-07-13T12:55:54;99526.31;;;29.18;78.77
21545;BME280;10933;50.754;11.508;2023-07-13T12:58:37;99542.63;;;28.70;79.96
21545;BME280;10933;50.754;11.508;2023-07-13T13:01:04;99541.81;;;28.70;78.87
21545;BME280;10933;50.754;11.508;2023-07-13T13:03:39;99557.59;;;28.20;84.79
21545;BME280;10933;50.754;11.508;2023-07-13T13:08:42;99554.66;;;27.51;90.87
21545;BME280;10933;50.754;11.508;2023-07-13T13:11:09;99552.06;;;27.59;89.04
21545;BME280;10933;50.754;11.508;2023-07-13T13:13:36;99555.63;;;27.59;90.96
21545;BME280;10933;50.754;11.508;2023-07-13T13:16:11;99552.63;;;28.75;91.46
21545;BME280;10933;50.754;11.508;2023-07-13T13:18:38;99539.97;;;29.00;85.11
21545;BME280;10933;50.754;11.508;2023-07-13T13:21:04;99546.34;;;28.55;82.08
21545;BME280;10933;50.754;11.508;2023-07-13T13:23:30;99550.41;;;28.15;86.05
21545;BME280;10933;50.754;11.508;2023-07-13T13:25:56;99557.28;;;28.02;82.43
21545;BME280;10933;50.754;11.508;2023-07-13T13:28:23;99547.72;;;28.42;82.91
21545;BME280;10933;50.754;11.508;2023-07-13T13:30:50;99548.53;;;28.42;85.69
21545;BME280;10933;50.754;11.508;2023-07-13T13:33:19;99554.09;;;28.00;86.79
21545;BME280;10933;50.754;11.508;2023-07-13T13:35:46;99558.31;;;27.94;89.60
21545;BME280;10933;50.754;11.508;2023-07-13T13:38:14;99550.34;;;27.70;91.26